createdAt,value
2023-04-30T00:03:40.424Z,18.67
2023-04-30T00:08:43.096Z,20.03
2023-04-30T00:13:47.037Z,21.90
2023-04-30T00:18:49.681Z,20.52
2023-04-30T00:23:52.367Z,20.50
2023-04-30T00:28:56.335Z,18.90
2023-04-30T00:33:59.088Z,16.67
2023-04-30T00:39:01.719Z,16.00
2023-04-30T00:44:06.591Z,19.48
2023-04-30T00:49:09.645Z,16.55
2023-04-30T00:54:12.482Z,16.98
2023-04-30T00:59:16.625Z,22.40
2023-04-30T01:04:19.418Z,19.88
2023-04-30T01:09:22.272Z,19.87
2023-04-30T01:14:29.839Z,20.33
2023-04-30T01:19:39.100Z,23.90
2023-04-30T01:25:07.506Z,23.63
2023-04-30T01:30:12.914Z,19.73
2023-04-30T01:35:16.161Z,17.17
2023-04-30T01:40:25.547Z,19.05
2023-04-30T01:45:49.449Z,19.50
2023-04-30T01:50:57.048Z,22.03
2023-04-30T01:56:03.584Z,24.13
2023-04-30T02:01:07.941Z,21.40
2023-04-30T02:06:10.582Z,28.25
2023-04-30T02:11:13.167Z,24.47
2023-04-30T02:16:17.144Z,21.45
2023-04-30T02:21:19.851Z,25.27
2023-04-30T02:26:22.598Z,20.13
2023-04-30T02:31:26.602Z,20.33
2023-04-30T02:36:29.330Z,20.95
2023-04-30T02:41:31.899Z,23.60
2023-04-30T02:46:35.955Z,18.38
2023-04-30T02:51:38.561Z,17.58
2023-04-30T02:56:41.660Z,22.95
2023-04-30T03:01:45.655Z,18.67
2023-04-30T03:06:48.270Z,22.10
2023-04-30T03:11:50.986Z,19.63
2023-04-30T03:16:54.967Z,20.40
2023-04-30T03:21:57.696Z,21.23
2023-04-30T03:27:02.057Z,19.03
2023-04-30T03:32:06.327Z,20.55
2023-04-30T03:37:09.117Z,18.92
2023-04-30T03:42:11.733Z,25.00
2023-04-30T03:47:15.761Z,21.65
2023-04-30T03:52:18.354Z,20.67
2023-04-30T03:57:21.196Z,19.58
2023-04-30T04:02:25.434Z,17.30
2023-04-30T04:07:28.251Z,19.98
2023-04-30T04:12:30.810Z,19.73
2023-04-30T04:17:34.863Z,25.23
2023-04-30T04:22:37.461Z,27.00
2023-04-30T04:27:40.142Z,27.38
2023-04-30T04:32:48.394Z,27.50
2023-04-30T04:37:50.971Z,31.38
2023-04-30T04:42:53.684Z,28.40
2023-04-30T04:47:57.723Z,28.53
2023-04-30T04:53:00.390Z,30.67
2023-04-30T04:58:02.982Z,25.00
2023-04-30T05:03:07.038Z,18.60
2023-04-30T05:08:09.872Z,22.67
2023-04-30T05:13:12.467Z,17.70
2023-04-30T05:18:16.428Z,19.92
2023-04-30T05:23:19.051Z,22.98
2023-04-30T05:28:21.791Z,20.57
2023-04-30T05:33:26.152Z,15.03
2023-04-30T05:38:29.000Z,17.98
2023-04-30T05:43:31.596Z,19.07
2023-04-30T05:48:35.532Z,17.57
2023-04-30T05:53:38.111Z,16.48
2023-04-30T05:58:42.204Z,14.68
2023-04-30T06:03:46.248Z,16.17
2023-04-30T06:08:49.948Z,13.98
2023-04-30T06:13:52.785Z,14.88
2023-04-30T06:18:56.885Z,9.63
2023-04-30T06:23:59.470Z,9.32
2023-04-30T06:29:02.079Z,6.60
2023-04-30T06:34:06.030Z,6.25
2023-04-30T06:39:08.787Z,10.77
2023-04-30T06:44:11.512Z,5.63
2023-04-30T06:49:15.609Z,6.10
2023-04-30T06:54:19.442Z,5.22
2023-04-30T06:59:22.118Z,9.32
2023-04-30T07:04:27.173Z,6.85
2023-04-30T07:09:29.994Z,6.78
2023-04-30T07:19:36.539Z,7.18
2023-04-30T07:24:39.091Z,5.15
2023-04-30T07:29:41.755Z,9.55
2023-04-30T07:34:45.759Z,8.25
2023-04-30T07:39:48.541Z,5.15
2023-04-30T07:44:52.821Z,7.50
2023-04-30T07:49:57.398Z,5.63
2023-04-30T07:55:00.372Z,9.07
2023-04-30T08:00:04.112Z,6.22
2023-04-30T08:05:09.357Z,4.97
2023-04-30T08:10:12.336Z,4.82
2023-04-30T08:15:15.340Z,6.28
2023-04-30T08:20:19.933Z,6.07
2023-04-30T08:25:22.548Z,5.50
2023-04-30T08:35:30.810Z,3.05
2023-04-30T08:40:50.217Z,4.38
2023-04-30T08:45:54.189Z,8.40
2023-04-30T08:51:01.160Z,6.05
2023-04-30T08:56:04.233Z,3.85
2023-04-30T09:01:09.756Z,3.92
2023-04-30T09:06:17.765Z,6.65
2023-04-30T09:11:25.805Z,4.63
2023-04-30T09:16:31.328Z,6.75
2023-04-30T09:21:36.742Z,2.63
2023-04-30T09:26:40.067Z,5.55
2023-04-30T09:31:46.054Z,6.53
2023-04-30T09:36:56.869Z,4.10
2023-04-30T09:42:08.954Z,3.78
2023-04-30T09:47:16.368Z,5.03
2023-04-30T09:52:21.055Z,4.57
2023-04-30T09:57:25.268Z,7.25
2023-04-30T10:02:28.917Z,4.35
2023-04-30T10:07:37.262Z,3.53
2023-04-30T10:12:51.343Z,3.85
2023-04-30T10:17:59.304Z,6.40
2023-04-30T10:23:03.452Z,5.60
2023-04-30T10:28:07.155Z,5.03
2023-04-30T10:33:17.898Z,5.30
2023-04-30T10:38:25.488Z,3.70
2023-04-30T10:43:28.729Z,3.28
2023-04-30T10:48:35.930Z,4.10
2023-04-30T10:53:43.073Z,5.78
2023-04-30T10:58:45.764Z,5.18
2023-04-30T11:04:06.820Z,4.47
2023-04-30T11:09:10.875Z,4.38
2023-04-30T11:14:13.945Z,5.03
2023-04-30T11:19:17.151Z,4.47
2023-04-30T11:24:22.190Z,4.05
2023-04-30T11:29:25.668Z,4.22
2023-04-30T11:34:28.398Z,3.63
2023-04-30T11:39:36.366Z,4.25
2023-04-30T11:44:39.672Z,2.67
2023-04-30T11:49:42.519Z,3.15
2023-04-30T11:54:46.554Z,3.00
2023-04-30T11:59:50.240Z,3.67
2023-04-30T12:04:53.151Z,3.90
2023-04-30T12:09:57.734Z,3.80
2023-04-30T12:15:12.235Z,3.85
2023-04-30T12:20:16.287Z,3.58
2023-04-30T12:25:22.458Z,5.75
2023-04-30T12:30:27.083Z,3.30
2023-04-30T12:35:32.556Z,4.32
2023-04-30T12:40:36.992Z,3.47
2023-04-30T12:45:52.365Z,2.72
2023-04-30T12:50:56.370Z,3.13
2023-04-30T12:56:10.889Z,3.17
2023-04-30T13:01:15.095Z,3.35
2023-04-30T13:06:18.185Z,1.73
2023-04-30T13:11:22.354Z,3.03
2023-04-30T13:16:25.880Z,3.42
2023-04-30T13:21:28.884Z,2.15
2023-04-30T13:31:35.371Z,3.50
2023-04-30T13:36:38.109Z,3.60
2023-04-30T13:41:42.187Z,3.60
2023-04-30T13:46:44.939Z,2.97
2023-04-30T13:51:47.683Z,3.08
2023-04-30T14:01:54.222Z,2.85
2023-04-30T14:12:01.651Z,2.63
2023-04-30T14:17:04.543Z,2.13
2023-04-30T14:22:07.835Z,3.78
2023-04-30T14:27:11.779Z,1.58
2023-04-30T14:32:15.182Z,2.97
2023-04-30T14:37:17.908Z,2.05
2023-04-30T14:47:27.398Z,1.35
2023-04-30T14:52:30.079Z,1.67
2023-04-30T14:57:36.062Z,1.85
2023-04-30T15:02:38.885Z,1.48
2023-04-30T15:07:41.575Z,1.73
2023-04-30T15:12:45.532Z,2.63
2023-04-30T15:17:48.217Z,2.63
2023-04-30T15:22:50.814Z,3.97
2023-04-30T15:27:55.800Z,2.85
2023-04-30T15:32:58.412Z,2.97
2023-04-30T15:38:01.088Z,3.17
2023-04-30T15:48:08.486Z,2.60
2023-04-30T15:53:11.127Z,3.35
2023-04-30T16:03:17.625Z,2.25
2023-04-30T16:08:20.411Z,1.15
2023-04-30T16:13:24.301Z,2.35
2023-04-30T16:18:27.553Z,3.92
2023-04-30T16:23:30.253Z,3.10
2023-04-30T16:28:34.193Z,4.63
2023-04-30T16:33:36.742Z,1.65
2023-04-30T16:38:39.314Z,1.63
2023-04-30T16:43:44.015Z,1.95
2023-04-30T16:48:47.868Z,1.73
2023-04-30T16:53:50.437Z,2.85
2023-04-30T17:03:57.262Z,2.00
2023-04-30T17:08:59.927Z,1.75
2023-04-30T17:14:03.908Z,4.30
2023-04-30T17:19:07.703Z,2.28
2023-04-30T17:24:10.537Z,2.38
2023-04-30T17:34:16.892Z,4.28
2023-04-30T17:39:20.261Z,2.40
2023-04-30T17:44:24.717Z,2.40
2023-04-30T17:49:28.471Z,2.63
2023-04-30T17:54:31.378Z,2.88
2023-04-30T17:59:35.779Z,2.58
2023-04-30T18:04:39.358Z,3.53
2023-04-30T18:09:42.094Z,5.22
2023-04-30T18:14:45.972Z,4.65
2023-04-30T18:19:49.796Z,2.63
2023-04-30T18:24:52.706Z,1.98
2023-04-30T18:29:57.454Z,6.20
2023-04-30T18:35:00.194Z,3.97
2023-04-30T18:40:02.841Z,2.60
2023-04-30T18:45:09.109Z,4.07
2023-04-30T18:50:16.920Z,3.78
2023-04-30T18:55:19.793Z,3.78
2023-04-30T19:00:23.760Z,2.28
2023-04-30T19:05:26.625Z,2.78
2023-04-30T19:10:29.173Z,5.32
2023-04-30T19:15:33.087Z,3.17
2023-04-30T19:20:36.033Z,4.13
2023-04-30T19:25:39.032Z,6.57
2023-04-30T19:30:43.148Z,6.03
2023-04-30T19:35:49.114Z,2.60
2023-04-30T19:40:53.158Z,4.13
2023-04-30T19:45:58.742Z,3.28
2023-04-30T19:51:05.119Z,4.35
2023-04-30T19:56:08.526Z,4.22
2023-04-30T20:06:15.200Z,3.97
2023-04-30T20:11:17.841Z,4.73
2023-04-30T20:16:21.820Z,4.93
2023-04-30T20:21:26.033Z,5.18
2023-04-30T20:26:28.585Z,3.30
2023-04-30T20:31:32.951Z,7.40
2023-04-30T20:36:36.008Z,3.47
2023-04-30T20:41:39.350Z,5.47
2023-04-30T20:46:43.543Z,7.07
2023-04-30T20:51:46.211Z,4.70
2023-04-30T20:56:49.004Z,6.37
2023-04-30T21:01:52.949Z,6.50
2023-04-30T21:06:55.534Z,9.15
2023-04-30T21:11:58.372Z,5.37
2023-04-30T21:17:02.595Z,5.53
2023-04-30T21:22:05.246Z,4.88
2023-04-30T21:27:08.084Z,5.67
2023-04-30T21:32:12.036Z,5.37
2023-04-30T21:37:17.054Z,7.65
2023-04-30T21:42:20.021Z,6.55
2023-04-30T21:47:24.077Z,5.00
2023-04-30T21:52:26.717Z,6.13
2023-04-30T21:57:29.275Z,4.63
2023-04-30T22:02:34.538Z,5.17
2023-04-30T22:07:37.244Z,7.30
2023-04-30T22:12:39.896Z,4.23
2023-04-30T22:17:44.210Z,5.20
2023-04-30T22:22:46.835Z,6.60
2023-04-30T22:27:49.424Z,5.00
2023-04-30T22:32:57.102Z,6.97
2023-04-30T22:38:00.555Z,5.82
2023-04-30T22:48:10.956Z,3.83
2023-04-30T22:53:14.107Z,6.70
2023-04-30T22:58:17.427Z,8.15
2023-04-30T23:03:21.573Z,4.03
2023-04-30T23:08:24.092Z,6.13
2023-04-30T23:13:26.742Z,5.15
2023-04-30T23:18:30.640Z,7.83
2023-04-30T23:23:33.611Z,4.43
2023-04-30T23:28:37.990Z,6.68
2023-04-30T23:33:41.940Z,4.82
2023-04-30T23:38:46.668Z,4.97
2023-04-30T23:43:51.068Z,5.57
2023-04-30T23:48:55.663Z,8.55
2023-04-30T23:53:58.215Z,11.48
2023-04-30T23:59:00.876Z,9.02
